createdAt,value
2023-09-01T00:01:14.339Z,19.80
2023-09-01T00:06:37.572Z,19.80
2023-09-01T00:11:42.898Z,19.80
2023-09-01T00:16:45.918Z,19.70
2023-09-01T00:21:48.906Z,19.70
2023-09-01T00:26:53.183Z,19.70
2023-09-01T00:31:56.155Z,19.70
2023-09-01T00:36:59.302Z,19.80
2023-09-01T00:42:04.239Z,19.70
2023-09-01T00:47:07.623Z,19.80
2023-09-01T00:52:10.780Z,19.80
2023-09-01T00:57:15.061Z,19.70
2023-09-01T01:02:17.990Z,19.70
2023-09-01T01:07:29.526Z,19.80
2023-09-01T01:12:44.351Z,19.70
2023-09-01T01:17:48.530Z,19.80
2023-09-01T01:22:59.945Z,19.80
2023-09-01T01:28:08.767Z,19.80
2023-09-01T01:33:23.120Z,19.90
2023-09-01T01:38:29.067Z,19.90
2023-09-01T01:43:33.978Z,20.00
2023-09-01T01:48:40.144Z,20.00
2023-09-01T01:53:44.746Z,20.00
2023-09-01T01:58:47.702Z,20.10
2023-09-01T02:03:50.844Z,20.10
2023-09-01T02:08:55.201Z,20.10
2023-09-01T02:13:59.194Z,20.10
2023-09-01T02:19:02.129Z,20.10
2023-09-01T02:24:07.876Z,20.20
2023-09-01T02:29:10.958Z,20.10
2023-09-01T02:34:13.876Z,20.20
2023-09-01T02:39:18.813Z,20.10
2023-09-01T02:44:21.785Z,20.20
2023-09-01T02:49:24.784Z,20.20
2023-09-01T02:54:29.850Z,20.20
2023-09-01T02:59:32.792Z,20.20
2023-09-01T03:04:35.798Z,20.30
2023-09-01T03:09:40.086Z,20.30
2023-09-01T03:14:43.905Z,20.30
2023-09-01T03:19:47.840Z,20.30
2023-09-01T03:24:53.794Z,20.30
2023-09-01T03:29:57.556Z,20.40
2023-09-01T03:35:06.984Z,20.40
2023-09-01T03:40:12.449Z,20.40
2023-09-01T03:45:15.442Z,20.40
2023-09-01T03:50:18.845Z,20.40
2023-09-01T03:55:23.487Z,20.50
2023-09-01T04:00:26.477Z,20.40
2023-09-01T04:05:29.590Z,20.50
2023-09-01T04:10:33.873Z,20.60
2023-09-01T04:15:38.206Z,20.60
2023-09-01T04:20:41.662Z,20.50
2023-09-01T04:25:47.833Z,20.30
2023-09-01T04:30:54.397Z,20.20
2023-09-01T04:35:58.762Z,20.00
2023-09-01T04:41:03.246Z,20.00
2023-09-01T04:46:09.992Z,20.00
2023-09-01T04:51:13.002Z,20.00
2023-09-01T04:56:17.559Z,20.00
2023-09-01T05:01:20.589Z,20.00
2023-09-01T05:06:24.276Z,19.90
2023-09-01T05:11:28.612Z,19.90
2023-09-01T05:16:31.535Z,19.90
2023-09-01T05:21:34.510Z,19.80
2023-09-01T05:26:38.788Z,19.70
2023-09-01T05:31:41.753Z,19.70
2023-09-01T05:36:44.757Z,19.80
2023-09-01T05:41:48.996Z,19.70
2023-09-01T05:46:52.848Z,19.70
2023-09-01T05:51:55.913Z,19.60
2023-09-01T05:57:00.171Z,19.60
2023-09-01T06:02:03.651Z,19.60
2023-09-01T06:07:07.119Z,19.60
2023-09-01T06:12:12.415Z,19.60
2023-09-01T06:17:15.473Z,19.70
2023-09-01T06:22:18.474Z,19.60
2023-09-01T06:27:22.786Z,19.70
2023-09-01T06:32:26.927Z,19.70
2023-09-01T06:37:30.048Z,19.70
2023-09-01T06:42:34.785Z,19.80
2023-09-01T06:47:37.937Z,19.70
2023-09-01T06:52:40.914Z,19.80
2023-09-01T06:57:45.247Z,19.80
2023-09-01T07:02:48.210Z,19.80
2023-09-01T07:07:53.560Z,19.80
2023-09-01T07:12:57.815Z,19.80
2023-09-01T07:18:01.008Z,19.70
2023-09-01T07:23:04.148Z,19.70
2023-09-01T07:28:08.819Z,19.70
2023-09-01T07:33:12.605Z,19.70
2023-09-01T07:38:15.925Z,19.70
2023-09-01T07:43:20.480Z,19.80
2023-09-01T07:48:23.656Z,19.90
2023-09-01T07:53:26.827Z,19.90
2023-09-01T07:58:31.070Z,20.00
2023-09-01T08:03:34.465Z,20.00
2023-09-01T08:08:38.027Z,20.10
2023-09-01T08:13:43.514Z,20.20
2023-09-01T08:18:48.769Z,20.30
2023-09-01T08:23:52.278Z,20.50
2023-09-01T08:28:57.201Z,20.80
2023-09-01T08:34:00.197Z,20.90
2023-09-01T08:39:04.238Z,21.00
2023-09-01T08:44:09.376Z,21.00
2023-09-01T08:49:12.342Z,21.00
2023-09-01T08:54:16.300Z,21.10
2023-09-01T08:59:20.610Z,21.30
2023-09-01T09:04:23.614Z,21.30
2023-09-01T09:09:27.111Z,21.60
2023-09-01T09:14:57.310Z,21.60
2023-09-01T09:20:01.876Z,21.70
2023-09-01T09:25:06.045Z,21.90
2023-09-01T09:30:11.904Z,22.10
2023-09-01T09:35:14.834Z,22.10
2023-09-01T09:40:19.240Z,22.30
2023-09-01T09:45:28.091Z,22.30
2023-09-01T09:50:32.010Z,22.40
2023-09-01T09:55:37.674Z,22.40
2023-09-01T10:00:47.305Z,22.70
2023-09-01T10:05:51.467Z,23.00
2023-09-01T10:10:55.777Z,23.00
2023-09-01T10:16:01.895Z,22.90
2023-09-01T10:21:05.310Z,22.90
2023-09-01T10:26:16.747Z,23.10
2023-09-01T10:31:22.096Z,23.20
2023-09-01T10:36:25.056Z,23.60
2023-09-01T10:41:52.552Z,24.00
2023-09-01T10:46:56.915Z,24.10
2023-09-01T10:52:14.094Z,23.90
2023-09-01T10:57:17.349Z,24.30
2023-09-01T11:02:23.633Z,24.00
2023-09-01T11:07:26.750Z,24.10
2023-09-01T11:12:32.748Z,24.20
2023-09-01T11:17:46.589Z,24.30
2023-09-01T11:22:50.102Z,24.30
2023-09-01T11:27:53.889Z,24.50
2023-09-01T11:32:58.291Z,24.40
2023-09-01T11:38:01.424Z,24.10
2023-09-01T11:43:04.901Z,23.90
2023-09-01T11:48:09.588Z,23.80
2023-09-01T11:53:12.612Z,23.70
2023-09-01T11:58:16.461Z,23.80
2023-09-01T12:03:24.673Z,23.90
2023-09-01T12:08:27.644Z,24.20
2023-09-01T12:13:32.302Z,24.40
2023-09-01T12:18:40.811Z,24.60
2023-09-01T12:23:45.132Z,24.70
2023-09-01T12:28:48.035Z,24.80
2023-09-01T12:33:52.314Z,24.90
2023-09-01T12:38:55.274Z,25.00
2023-09-01T12:43:58.236Z,24.90
2023-09-01T12:49:03.044Z,25.00
2023-09-01T12:54:06.266Z,25.10
2023-09-01T12:59:09.776Z,24.90
2023-09-01T13:04:14.106Z,24.80
2023-09-01T13:09:17.007Z,25.10
2023-09-01T13:14:19.905Z,25.30
2023-09-01T13:19:24.216Z,25.10
2023-09-01T13:24:27.245Z,25.20
2023-09-01T13:29:30.134Z,25.20
2023-09-01T13:34:36.684Z,25.10
2023-09-01T13:39:40.958Z,24.90
2023-09-01T13:44:43.858Z,25.10
2023-09-01T13:49:48.114Z,25.20
2023-09-01T13:54:52.229Z,25.20
2023-09-01T13:59:55.228Z,25.20
2023-09-01T14:04:59.480Z,25.20
2023-09-01T14:10:02.644Z,25.20
2023-09-01T14:15:06.178Z,25.20
2023-09-01T14:20:11.097Z,25.00
2023-09-01T14:25:14.081Z,25.10
2023-09-01T14:30:17.163Z,25.00
2023-09-01T14:35:21.531Z,25.00
2023-09-01T14:40:24.494Z,25.00
2023-09-01T14:45:27.422Z,24.90
2023-09-01T14:50:31.708Z,25.00
2023-09-01T14:55:35.236Z,25.20
2023-09-01T15:00:38.143Z,25.20
2023-09-01T15:05:42.446Z,25.10
2023-09-01T15:10:45.365Z,25.30
2023-09-01T15:15:49.492Z,25.40
2023-09-01T15:21:05.035Z,25.80
2023-09-01T15:26:07.983Z,25.80
2023-09-01T15:31:10.998Z,25.80
2023-09-01T15:36:15.241Z,25.80
2023-09-01T15:41:18.167Z,25.70
2023-09-01T15:46:21.216Z,25.80
2023-09-01T15:51:25.975Z,26.00
2023-09-01T15:56:28.938Z,26.00
2023-09-01T16:01:31.880Z,25.90
2023-09-01T16:06:36.987Z,25.90
2023-09-01T16:11:40.868Z,25.70
2023-09-01T16:16:43.774Z,25.60
2023-09-01T16:21:48.032Z,25.50
2023-09-01T16:26:56.981Z,25.60
2023-09-01T16:32:00.380Z,25.50
2023-09-01T16:37:05.117Z,25.60
2023-09-01T16:42:08.021Z,25.60
2023-09-01T16:47:10.921Z,25.60
2023-09-01T16:52:15.763Z,25.50
2023-09-01T16:57:18.740Z,25.60
2023-09-01T17:02:21.683Z,25.50
2023-09-01T17:07:27.218Z,25.50
2023-09-01T17:12:30.244Z,25.30
2023-09-01T17:17:34.356Z,25.30
2023-09-01T17:22:38.753Z,25.10
2023-09-01T17:27:41.664Z,25.10
2023-09-01T17:32:44.917Z,25.00
2023-09-01T17:37:49.235Z,24.80
2023-09-01T17:42:52.140Z,24.80
2023-09-01T17:47:55.119Z,24.90
2023-09-01T17:52:59.885Z,24.90
2023-09-01T17:58:03.278Z,24.90
2023-09-01T18:03:06.692Z,24.90
2023-09-01T18:08:11.259Z,24.60
2023-09-01T18:13:15.615Z,24.50
2023-09-01T18:18:18.915Z,24.60
2023-09-01T18:23:26.109Z,24.30
2023-09-01T18:28:29.879Z,24.30
2023-09-01T18:33:34.998Z,24.10
2023-09-01T18:38:39.299Z,23.90
2023-09-01T18:43:42.382Z,23.90
2023-09-01T18:48:45.759Z,23.80
2023-09-01T18:53:49.986Z,23.80
2023-09-01T18:58:53.180Z,23.70
2023-09-01T19:03:56.383Z,23.60
2023-09-01T19:09:01.786Z,23.50
2023-09-01T19:14:04.851Z,23.20
2023-09-01T19:19:09.682Z,23.10
2023-09-01T19:24:14.120Z,23.00
2023-09-01T19:29:18.738Z,22.90
2023-09-01T19:34:22.528Z,22.80
2023-09-01T19:39:27.162Z,22.20
2023-09-01T19:44:30.154Z,22.40
2023-09-01T19:49:33.079Z,22.60
2023-09-01T19:54:37.403Z,22.70
2023-09-01T19:59:40.324Z,22.70
2023-09-01T20:04:43.271Z,22.50
2023-09-01T20:09:47.578Z,22.30
2023-09-01T20:14:50.783Z,22.30
2023-09-01T20:19:54.905Z,22.20
2023-09-01T20:25:00.307Z,21.70
2023-09-01T20:30:04.241Z,21.40
2023-09-01T20:35:07.862Z,21.80
2023-09-01T20:40:12.345Z,21.80
2023-09-01T20:45:15.251Z,21.90
2023-09-01T20:50:18.210Z,21.90
2023-09-01T20:55:22.620Z,21.80
2023-09-01T21:00:26.754Z,21.80
2023-09-01T21:05:29.789Z,21.80
2023-09-01T21:10:34.089Z,21.80
2023-09-01T21:15:37.070Z,21.90
2023-09-01T21:20:40.131Z,21.80
2023-09-01T21:25:44.386Z,21.60
2023-09-01T21:30:50.182Z,21.60
2023-09-01T21:35:53.170Z,21.60
2023-09-01T21:40:57.449Z,21.60
2023-09-01T21:46:00.376Z,21.50
2023-09-01T21:51:03.566Z,21.30
2023-09-01T21:56:08.089Z,21.30
2023-09-01T22:01:11.058Z,21.30
2023-09-01T22:06:14.048Z,21.30
2023-09-01T22:11:18.928Z,21.10
2023-09-01T22:16:22.801Z,21.10
2023-09-01T22:21:25.837Z,21.00
2023-09-01T22:26:30.090Z,20.90
2023-09-01T22:31:33.009Z,21.00
2023-09-01T22:36:35.942Z,21.10
2023-09-01T22:41:40.196Z,21.00
2023-09-01T22:46:43.112Z,21.00
2023-09-01T22:51:46.055Z,21.00
2023-09-01T22:56:50.376Z,21.00
2023-09-01T23:01:53.369Z,20.60
2023-09-01T23:06:56.277Z,20.60
2023-09-01T23:12:01.179Z,20.80
2023-09-01T23:17:04.398Z,20.60
2023-09-01T23:22:07.779Z,20.60
2023-09-01T23:27:12.061Z,20.60
2023-09-01T23:32:15.060Z,20.60
2023-09-01T23:37:17.989Z,20.50
2023-09-01T23:42:24.115Z,20.50
2023-09-01T23:47:28.344Z,20.40
2023-09-01T23:52:31.676Z,20.00
2023-09-01T23:57:35.961Z,20.20
